Rechercher aéroport 
image banner adimage banner adimage banner ad
image banner ad

O88 - Rio Vista Muni

Situé à Rio Vista, United States

ICAO - O88, IATA -

Données fournies par Airmate  

Information générale

Coordonnées: N38°11'36" W121°42'13"
Élévation : 23 feet MSL.
Variation magnétique : 14° East
Voir autres Aéroports à California

Données opérationnelles

Special qualification required
Heure actuelle UTC:
Heure actuelle locale:
Météo à : KSUU - Travis Afb ( 21 km )
METAR: KSUU 292358Z AUTO 24017KT 10SM CLR 34/14 A2981 RMK AO2 SLP101 T03370137 10381 20268 56017 $
TAF: TAF AMD KSUU 292225Z 2922/3101 23015G25KT 9999 SKC QNH2978INS BECMG 3015/3016 23010G15KT 9999 SKC QNH2982INS TX36/2923Z TN14/3013Z
Voir NOTAMs / SUP AIP / TFR affectant cet aéroport [VIEW]
Fréquences de communication: [VIEW]

Pistes:

Identifiant RWYQFULongueur (ft)Largeur (ft)SurfaceLDA (ft)
0786°419975ASPH
25266°419975ASPH
15160°219960ASPH
33340°219960ASPH

Coordonnées de l'aéroport

Adresse: Rio Vista United States

Autres services d'aviation

Écoles de pilotage

Travis Aero Club

Travis Aero Club

Vue satellite de O88